LiveATC.Net - Listen to live air traffic control over the Internet!


ICAO: KBKF  IATA: BKF   Airport: Buckley Air Force Base
City: Aurora   State/Province: Colorado
Country: United States   Continent: North America
KBKF METAR Weather: KBKF 141958Z 23007KT 10SM FEW220 15/M06 A3026 RMK AO2A SLP228 T01531063
KBKF Flight Activity (FlightAware)
KBKF Airport Info   (AirNav) (iFlightPlanner)
KBKF VFR Sectional Chart   (iFlightPlanner) 
KBKF IFR Low Chart   (iFlightPlanner) 

KBKF Tower
Feed Status: UP   Listeners: 0
Listen in your browser - HTML5 player (in browser, HTML5)
Listen in your browser - requires Flash (in browser, requires Flash)
Click here to listen with your own player (launches your MP3 player)
KBKF Tower Audio Archives
FacilityFrequency
Buckley Tower291.675

NOTICE

Unauthorized use prohibited. See LiveATC.net Terms of Service


Find LiveATC Audio Streams


Airport/ARTCC Code

Frequency Search
(e.g., 124.400, 128.75)
Site-wide search
 


Browse LiveATC Feeds
Top 50 LiveATC Feeds
Bad Weather Areas

LiveATC FAQ
Offer a LiveATC Feed
Contact LiveATC.net
Press Inquiries

LiveATC on iPhone
LiveATC on Android

Windows Phone
Windows 8/10

LiveATC Mobile
(Mobile browser)

ATC Audio Archives
Interesting Recordings

LiveATC Forums


Home Page
About LiveATC.net
Make a Donation
Terms of Use
Privacy Policy

Canadian Air Freqs

AIRMETs/SIGMETs

FAA Airport Status
Nat'l Airspace Status
Arrival Demand Charts


Server Software By:
Icecast.org
Liquidsoap